createdAt,value
2022-09-17T00:01:37.695Z,0.90
2022-09-17T00:04:06.515Z,1.10
2022-09-17T00:06:35.979Z,0.90
2022-09-17T00:09:06.818Z,0.90
2022-09-17T00:11:38.622Z,0.88
2022-09-17T00:14:10.196Z,1.17
2022-09-17T00:16:45.233Z,0.90
2022-09-17T00:19:23.055Z,0.90
2022-09-17T00:21:51.553Z,0.90
2022-09-17T00:24:20.814Z,0.90
2022-09-17T00:26:50.188Z,1.02
2022-09-17T00:29:18.123Z,1.00
2022-09-17T00:31:45.960Z,1.25
2022-09-17T00:34:13.898Z,1.20
2022-09-17T00:36:42.135Z,1.20
2022-09-17T00:39:12.495Z,1.20
2022-09-17T00:41:40.294Z,1.45
2022-09-17T00:44:43.389Z,1.27
2022-09-17T00:47:16.201Z,1.30
2022-09-17T00:49:44.739Z,1.20
2022-09-17T00:52:21.924Z,1.27
2022-09-17T00:55:15.863Z,1.50
2022-09-17T00:57:46.023Z,1.30
2022-09-17T01:00:16.180Z,1.20
2022-09-17T01:02:45.008Z,1.93
2022-09-17T01:05:14.038Z,1.40
2022-09-17T01:07:57.725Z,1.58
2022-09-17T01:10:43.986Z,1.23
2022-09-17T01:14:05.707Z,1.10
2022-09-17T01:16:53.785Z,1.17
2022-09-17T01:19:38.150Z,1.73
2022-09-17T01:23:03.056Z,1.80
2022-09-17T01:26:05.920Z,1.50
2022-09-17T01:28:53.729Z,1.00
2022-09-17T01:31:49.149Z,1.10
2022-09-17T01:34:59.509Z,1.87
2022-09-17T01:37:57.767Z,1.40
2022-09-17T01:40:41.804Z,1.70
2022-09-17T01:43:49.996Z,1.80
2022-09-17T01:46:33.971Z,1.80
2022-09-17T01:49:06.850Z,1.67
2022-09-17T01:51:43.302Z,1.33
2022-09-17T01:54:43.031Z,1.00
2022-09-17T01:57:36.447Z,1.40
2022-09-17T02:00:12.477Z,1.43
2022-09-17T02:03:05.698Z,1.40
2022-09-17T02:05:50.643Z,1.38
2022-09-17T02:08:26.324Z,1.10
2022-09-17T02:11:06.661Z,1.42
2022-09-17T02:13:46.313Z,1.55
2022-09-17T02:16:24.824Z,1.27
2022-09-17T02:19:10.869Z,1.60
2022-09-17T02:22:27.551Z,1.60
2022-09-17T02:25:08.499Z,1.40
2022-09-17T02:28:06.147Z,1.33
2022-09-17T02:30:34.442Z,1.60
2022-09-17T02:33:05.121Z,1.73
2022-09-17T02:35:33.412Z,1.30
2022-09-17T02:38:01.384Z,2.53
2022-09-17T02:40:37.831Z,1.55
2022-09-17T02:43:50.895Z,1.40
2022-09-17T02:46:55.297Z,1.40
2022-09-17T02:49:58.979Z,2.60
2022-09-17T02:52:49.365Z,1.60
2022-09-17T02:55:23.123Z,1.70
2022-09-17T02:58:04.438Z,1.40
2022-09-17T03:00:32.745Z,1.37
2022-09-17T03:03:26.656Z,2.20
2022-09-17T03:05:55.157Z,1.40
2022-09-17T03:08:30.562Z,1.53
2022-09-17T03:10:58.349Z,1.60
2022-09-17T03:13:26.231Z,1.50
2022-09-17T03:15:54.057Z,2.23
2022-09-17T03:18:21.801Z,1.30
2022-09-17T03:20:50.032Z,2.13
2022-09-17T03:23:17.744Z,1.20
2022-09-17T03:25:47.325Z,1.73
2022-09-17T03:28:15.438Z,1.70
2022-09-17T03:30:45.568Z,1.53
2022-09-17T03:33:14.432Z,1.70
2022-09-17T03:35:46.496Z,2.33
2022-09-17T03:38:14.640Z,1.50
2022-09-17T03:40:42.725Z,1.70
2022-09-17T03:43:11.166Z,1.70
2022-09-17T03:45:38.909Z,1.67
2022-09-17T03:48:06.617Z,1.77
2022-09-17T03:50:34.463Z,1.70
2022-09-17T03:53:02.216Z,1.87
2022-09-17T03:55:29.998Z,1.50
2022-09-17T03:57:57.715Z,1.70
2022-09-17T04:00:25.741Z,1.60
2022-09-17T04:02:53.548Z,1.63
2022-09-17T04:05:21.368Z,1.73
2022-09-17T04:07:49.224Z,2.10
2022-09-17T04:10:17.452Z,1.90
2022-09-17T04:12:45.361Z,1.97
2022-09-17T04:15:13.112Z,1.97
2022-09-17T04:17:41.074Z,1.70
2022-09-17T04:20:09.430Z,1.83
2022-09-17T04:22:37.146Z,1.80
2022-09-17T04:25:05.488Z,1.60
2022-09-17T04:27:33.225Z,1.93
2022-09-17T04:30:01.804Z,1.90
2022-09-17T04:32:29.549Z,1.60
2022-09-17T04:34:57.338Z,1.70
2022-09-17T04:37:25.909Z,2.17
2022-09-17T04:39:53.858Z,1.60
2022-09-17T04:42:21.600Z,1.70
2022-09-17T04:44:49.337Z,2.33
2022-09-17T04:47:17.066Z,2.10
2022-09-17T04:49:44.997Z,2.17
2022-09-17T04:52:12.708Z,2.10
2022-09-17T04:54:40.501Z,2.00
2022-09-17T04:57:08.420Z,2.30
2022-09-17T04:59:36.227Z,2.47
2022-09-17T05:02:04.020Z,1.80
2022-09-17T05:04:31.852Z,2.10
2022-09-17T05:07:00.319Z,2.20
2022-09-17T05:09:28.117Z,1.97
2022-09-17T05:11:55.910Z,3.50
2022-09-17T05:14:23.689Z,1.70
2022-09-17T05:16:51.448Z,2.63
2022-09-17T05:19:19.156Z,2.40
2022-09-17T05:21:47.198Z,2.70
2022-09-17T05:24:14.921Z,2.60
2022-09-17T05:26:42.697Z,2.50
2022-09-17T05:29:10.489Z,2.60
2022-09-17T05:31:38.356Z,2.47
2022-09-17T05:34:06.214Z,2.03
2022-09-17T05:36:33.977Z,2.80
2022-09-17T05:39:02.281Z,2.57
2022-09-17T05:41:30.186Z,2.03
2022-09-17T05:43:57.935Z,3.00
2022-09-17T05:46:26.390Z,2.37
2022-09-17T05:48:57.462Z,2.63
2022-09-17T05:51:25.464Z,2.80
2022-09-17T05:53:56.221Z,2.93
2022-09-17T05:56:24.175Z,2.50
2022-09-17T05:58:57.031Z,2.40
2022-09-17T06:01:25.087Z,3.40
2022-09-17T06:03:53.825Z,2.47
2022-09-17T06:06:21.585Z,2.60
2022-09-17T06:08:49.391Z,2.70
2022-09-17T06:11:17.086Z,2.50
2022-09-17T06:13:44.820Z,2.63
2022-09-17T06:16:12.613Z,2.37
2022-09-17T06:18:40.357Z,2.90
2022-09-17T06:21:08.047Z,2.73
2022-09-17T06:23:35.874Z,2.20
2022-09-17T06:26:05.843Z,2.53
2022-09-17T06:28:35.857Z,2.38
2022-09-17T06:31:09.411Z,2.40
2022-09-17T06:33:37.623Z,2.43
2022-09-17T06:36:13.743Z,2.42
2022-09-17T06:38:42.864Z,2.40
2022-09-17T06:41:10.632Z,2.37
2022-09-17T06:43:39.335Z,2.33
2022-09-17T06:46:09.205Z,3.17
2022-09-17T06:48:38.374Z,2.93
2022-09-17T06:51:11.127Z,3.60
2022-09-17T06:53:39.727Z,3.70
2022-09-17T06:56:09.189Z,3.90
2022-09-17T06:58:37.951Z,3.27
2022-09-17T07:01:06.155Z,3.87
2022-09-17T07:03:35.692Z,2.80
2022-09-17T07:06:04.015Z,2.50
2022-09-17T07:08:34.702Z,2.40
2022-09-17T07:11:02.907Z,2.67
2022-09-17T07:13:30.707Z,2.87
2022-09-17T07:16:01.286Z,3.07
2022-09-17T07:18:29.133Z,3.27
2022-09-17T07:21:02.818Z,2.87
2022-09-17T07:23:34.734Z,2.78
2022-09-17T07:26:06.883Z,2.70
2022-09-17T07:28:35.190Z,2.50
2022-09-17T07:31:05.546Z,2.80
2022-09-17T07:33:35.903Z,2.40
2022-09-17T07:36:07.631Z,3.27
2022-09-17T07:38:35.605Z,2.83
2022-09-17T07:41:15.652Z,2.53
2022-09-17T07:43:44.481Z,3.20
2022-09-17T07:46:18.094Z,3.23
2022-09-17T07:48:48.037Z,3.38
2022-09-17T07:51:22.300Z,3.50
2022-09-17T07:53:57.969Z,3.27
2022-09-17T07:56:27.435Z,3.60
2022-09-17T07:58:56.262Z,3.23
2022-09-17T08:01:24.424Z,4.17
2022-09-17T08:03:54.363Z,3.37
2022-09-17T08:06:28.351Z,3.35
2022-09-17T08:09:00.180Z,3.33
2022-09-17T08:11:52.212Z,3.67
2022-09-17T08:14:17.958Z,3.83
2022-09-17T08:16:47.433Z,3.73
2022-09-17T08:19:15.269Z,3.83
2022-09-17T08:21:42.987Z,3.93
2022-09-17T08:24:10.749Z,4.67
2022-09-17T08:26:39.798Z,2.97
2022-09-17T08:29:07.739Z,3.93
2022-09-17T08:31:35.545Z,3.97
2022-09-17T08:34:09.670Z,3.08
2022-09-17T08:36:37.895Z,3.55
2022-09-17T08:39:05.901Z,2.90
2022-09-17T08:41:52.457Z,2.90
2022-09-17T08:44:34.689Z,2.95
2022-09-17T08:47:26.536Z,2.70
2022-09-17T08:50:00.594Z,2.63
2022-09-17T08:52:52.296Z,3.30
2022-09-17T08:55:35.169Z,2.65
2022-09-17T08:58:35.293Z,2.53
2022-09-17T09:01:21.011Z,3.75
2022-09-17T09:04:26.378Z,2.70
2022-09-17T09:07:24.129Z,2.65
2022-09-17T09:10:17.848Z,3.17
2022-09-17T09:12:47.357Z,2.75
2022-09-17T09:15:27.307Z,2.67
2022-09-17T09:17:57.925Z,2.75
2022-09-17T09:21:04.117Z,2.70
2022-09-17T09:23:56.845Z,2.60
2022-09-17T09:27:02.400Z,3.38
2022-09-17T09:29:58.556Z,2.63
2022-09-17T09:33:07.048Z,2.72
2022-09-17T09:35:39.565Z,2.35
2022-09-17T09:38:25.342Z,2.78
2022-09-17T09:41:37.579Z,2.63
2022-09-17T09:44:11.446Z,2.83
2022-09-17T09:49:25.031Z,1.88
2022-09-17T09:52:07.749Z,3.13
2022-09-17T09:54:54.013Z,3.00
2022-09-17T09:57:52.321Z,2.03
2022-09-17T10:00:39.327Z,2.03
2022-09-17T10:03:26.782Z,2.10
2022-09-17T10:06:04.929Z,2.60
2022-09-17T10:08:39.087Z,2.55
2022-09-17T10:11:22.041Z,2.25
2022-09-17T10:13:50.176Z,2.13
2022-09-17T10:16:24.497Z,2.38
2022-09-17T10:19:04.354Z,2.28
2022-09-17T10:21:39.522Z,3.03
2022-09-17T10:24:31.139Z,2.22
2022-09-17T10:27:18.127Z,2.97
2022-09-17T10:29:49.309Z,2.88
2022-09-17T10:32:20.739Z,3.10
2022-09-17T10:35:16.958Z,2.03
2022-09-17T10:37:51.282Z,2.00
2022-09-17T10:40:19.025Z,2.17
2022-09-17T10:43:21.609Z,3.40
2022-09-17T10:45:59.686Z,2.50
2022-09-17T10:48:45.039Z,2.58
2022-09-17T10:51:23.355Z,2.13
2022-09-17T10:54:44.849Z,1.90
2022-09-17T10:57:29.206Z,2.20
2022-09-17T11:00:21.582Z,2.35
2022-09-17T11:03:10.848Z,2.55
2022-09-17T11:06:16.970Z,2.65
2022-09-17T11:09:05.926Z,2.00
2022-09-17T11:12:07.826Z,1.50
2022-09-17T11:14:56.870Z,1.77
2022-09-17T11:18:03.870Z,1.52
2022-09-17T11:21:03.498Z,1.58
2022-09-17T11:24:02.401Z,1.52
2022-09-17T11:27:00.760Z,1.60
2022-09-17T11:30:04.540Z,1.70
2022-09-17T11:33:14.234Z,1.63
2022-09-17T11:35:47.612Z,2.58
2022-09-17T11:38:27.043Z,2.40
2022-09-17T11:41:46.805Z,2.92
2022-09-17T11:44:21.093Z,2.10
2022-09-17T11:47:02.868Z,2.33
2022-09-17T11:49:46.626Z,1.70
2022-09-17T11:52:41.545Z,2.17
2022-09-17T11:55:22.799Z,2.85
2022-09-17T11:57:57.941Z,3.20
2022-09-17T12:00:28.640Z,1.98
2022-09-17T12:03:36.035Z,1.85
2022-09-17T12:06:16.365Z,1.90
2022-09-17T12:09:19.168Z,2.25
2022-09-17T12:11:59.362Z,2.33
2022-09-17T12:15:03.689Z,1.85
2022-09-17T12:17:42.489Z,1.80
2022-09-17T12:20:37.470Z,1.90
2022-09-17T12:23:15.083Z,3.03
2022-09-17T12:26:12.458Z,3.05
2022-09-17T12:29:05.915Z,1.92
2022-09-17T12:31:52.508Z,2.47
2022-09-17T12:34:29.248Z,2.08
2022-09-17T12:37:17.330Z,1.70
2022-09-17T12:39:54.015Z,1.50
2022-09-17T12:42:33.013Z,1.77
2022-09-17T12:45:42.419Z,1.80
2022-09-17T12:48:29.185Z,1.48
2022-09-17T12:51:53.138Z,1.25
2022-09-17T12:55:24.803Z,1.40
2022-09-17T12:58:07.580Z,1.45
2022-09-17T13:00:48.141Z,1.60
2022-09-17T13:03:29.375Z,1.33
2022-09-17T13:07:04.247Z,1.10
2022-09-17T13:10:15.326Z,1.60
2022-09-17T13:12:49.774Z,1.00
2022-09-17T13:15:36.154Z,1.33
2022-09-17T13:21:55.781Z,1.48
2022-09-17T13:24:27.271Z,1.38
2022-09-17T13:26:56.155Z,1.92
2022-09-17T13:29:46.094Z,1.67
2022-09-17T13:32:32.685Z,1.30
2022-09-17T13:35:15.246Z,1.50
2022-09-17T13:38:04.506Z,1.40
2022-09-17T13:40:36.969Z,1.25
2022-09-17T13:43:06.247Z,1.17
2022-09-17T13:45:59.494Z,1.30
2022-09-17T13:48:34.763Z,1.17
2022-09-17T13:51:30.381Z,1.17
2022-09-17T13:54:07.998Z,2.38
2022-09-17T13:56:46.239Z,1.27
2022-09-17T13:59:18.184Z,1.55
2022-09-17T14:02:18.650Z,1.65
2022-09-17T14:04:52.506Z,1.20
2022-09-17T14:10:02.887Z,1.20
2022-09-17T14:12:44.534Z,2.20
2022-09-17T14:15:31.977Z,1.20
2022-09-17T14:18:00.085Z,1.73
2022-09-17T14:20:28.728Z,1.30
2022-09-17T14:23:03.540Z,1.50
2022-09-17T14:25:58.492Z,1.20
2022-09-17T14:28:30.771Z,1.40
2022-09-17T14:31:02.892Z,1.52
2022-09-17T14:33:32.462Z,1.70
2022-09-17T14:36:10.690Z,1.65
2022-09-17T14:38:45.063Z,1.95
2022-09-17T14:41:12.856Z,1.75
2022-09-17T14:43:49.542Z,1.60
2022-09-17T14:46:37.514Z,1.50
2022-09-17T14:49:24.524Z,1.65
2022-09-17T14:51:55.719Z,1.70
2022-09-17T14:54:36.499Z,1.45
2022-09-17T14:57:29.637Z,1.70
2022-09-17T14:59:58.212Z,1.40
2022-09-17T15:02:45.362Z,1.77
2022-09-17T15:05:27.317Z,1.65
2022-09-17T15:08:10.414Z,1.50
2022-09-17T15:11:03.157Z,1.53
2022-09-17T15:13:57.296Z,1.48
2022-09-17T15:16:27.971Z,1.67
2022-09-17T15:18:58.720Z,1.88
2022-09-17T15:21:49.332Z,2.22
2022-09-17T15:24:38.927Z,1.70
2022-09-17T15:27:34.227Z,1.30
2022-09-17T15:30:20.405Z,2.17
2022-09-17T15:32:57.608Z,1.63
2022-09-17T15:35:30.565Z,2.13
2022-09-17T15:38:22.362Z,2.00
2022-09-17T15:40:51.823Z,2.33
2022-09-17T15:43:25.494Z,2.88
2022-09-17T15:45:54.002Z,2.03
2022-09-17T15:48:27.458Z,1.90
2022-09-17T15:50:57.965Z,3.17
2022-09-17T15:53:28.427Z,1.63
2022-09-17T15:56:17.810Z,1.38
2022-09-17T15:58:45.581Z,1.80
2022-09-17T16:01:15.994Z,1.42
2022-09-17T16:03:43.675Z,2.03
2022-09-17T16:06:20.929Z,1.30
2022-09-17T16:08:55.486Z,1.42
2022-09-17T16:11:26.679Z,1.90
2022-09-17T16:14:00.897Z,1.60
2022-09-17T16:16:37.566Z,1.95
2022-09-17T16:19:06.860Z,1.67
2022-09-17T16:21:34.596Z,1.73
2022-09-17T16:24:02.462Z,1.50
2022-09-17T16:26:33.711Z,1.88
2022-09-17T16:29:17.243Z,2.03
2022-09-17T16:31:45.241Z,3.33
2022-09-17T16:34:13.089Z,2.17
2022-09-17T16:36:41.077Z,1.80
2022-09-17T16:39:08.818Z,2.35
2022-09-17T16:41:36.541Z,2.45
2022-09-17T16:44:04.547Z,1.88
2022-09-17T16:46:32.358Z,2.45
2022-09-17T16:49:00.805Z,1.73
2022-09-17T16:51:28.656Z,2.58
2022-09-17T16:53:57.811Z,2.38
2022-09-17T16:56:26.164Z,2.03
2022-09-17T16:58:57.046Z,1.92
2022-09-17T17:01:24.981Z,1.67
2022-09-17T17:03:54.213Z,1.15
2022-09-17T17:06:22.751Z,1.20
2022-09-17T17:08:51.794Z,1.50
2022-09-17T17:11:19.509Z,1.77
2022-09-17T17:13:47.579Z,1.92
2022-09-17T17:16:16.246Z,1.63
2022-09-17T17:18:44.997Z,1.80
2022-09-17T17:21:14.475Z,1.57
2022-09-17T17:23:47.218Z,1.77
2022-09-17T17:26:16.777Z,2.38
2022-09-17T17:28:44.673Z,1.60
2022-09-17T17:31:12.443Z,1.92
2022-09-17T17:33:40.376Z,1.52
2022-09-17T17:36:08.731Z,1.67
2022-09-17T17:38:37.267Z,1.55
2022-09-17T17:41:14.118Z,1.42
2022-09-17T17:43:42.366Z,1.30
2022-09-17T17:46:11.845Z,1.58
2022-09-17T17:48:39.860Z,1.42
2022-09-17T17:51:09.700Z,1.23
2022-09-17T17:53:41.735Z,0.80
2022-09-17T17:56:11.172Z,1.23
2022-09-17T17:58:40.028Z,1.83
2022-09-17T18:01:20.910Z,1.30
2022-09-17T18:03:49.027Z,1.80
2022-09-17T18:06:16.936Z,1.83
2022-09-17T18:08:44.823Z,1.65
2022-09-17T18:11:12.745Z,1.55
2022-09-17T18:13:40.679Z,1.38
2022-09-17T18:16:12.374Z,1.40
2022-09-17T18:18:44.948Z,1.42
2022-09-17T18:21:22.190Z,1.10
2022-09-17T18:23:51.059Z,1.50
2022-09-17T18:26:25.563Z,1.42
2022-09-17T18:28:53.773Z,1.55
2022-09-17T18:31:22.903Z,2.25
2022-09-17T18:34:13.475Z,1.75
2022-09-17T18:36:44.700Z,1.50
2022-09-17T18:39:53.291Z,1.87
2022-09-17T18:42:04.501Z,1.70
2022-09-17T18:44:32.333Z,2.20
2022-09-17T18:47:00.295Z,1.60
2022-09-17T18:49:28.098Z,1.58
2022-09-17T18:51:55.881Z,2.00
2022-09-17T18:54:23.645Z,1.30
2022-09-17T18:56:51.376Z,1.40
2022-09-17T18:59:19.163Z,1.10
2022-09-17T19:01:46.955Z,0.80
2022-09-17T19:04:14.766Z,0.68
2022-09-17T19:06:42.492Z,1.20
2022-09-17T19:09:11.631Z,0.67
2022-09-17T19:11:39.365Z,0.77
2022-09-17T19:14:10.591Z,0.60
2022-09-17T19:16:38.348Z,0.73
2022-09-17T19:19:06.051Z,0.60
2022-09-17T19:21:33.773Z,0.90
2022-09-17T19:24:03.324Z,0.70
2022-09-17T19:26:31.192Z,1.00
2022-09-17T19:29:00.523Z,0.90
2022-09-17T19:31:28.955Z,0.77
2022-09-17T19:33:58.822Z,0.80
2022-09-17T19:36:26.842Z,1.03
2022-09-17T19:38:55.127Z,1.00
2022-09-17T19:41:23.405Z,1.13
2022-09-17T19:43:53.507Z,0.90
2022-09-17T19:46:26.843Z,0.60
2022-09-17T19:48:57.202Z,0.80
2022-09-17T19:51:29.699Z,1.70
2022-09-17T19:53:57.977Z,1.10
2022-09-17T19:56:28.257Z,1.47
2022-09-17T19:58:56.834Z,0.70
2022-09-17T20:01:24.779Z,1.47
2022-09-17T20:03:55.529Z,1.40
2022-09-17T20:06:24.074Z,1.10
2022-09-17T20:08:54.705Z,1.03
2022-09-17T20:11:25.293Z,1.40
2022-09-17T20:14:07.433Z,0.43
2022-09-17T20:16:38.464Z,0.97
2022-09-17T20:19:08.051Z,1.17
2022-09-17T20:21:35.879Z,0.90
2022-09-17T20:24:06.942Z,1.00
2022-09-17T20:26:35.394Z,0.90
2022-09-17T20:29:03.922Z,1.00
2022-09-17T20:31:32.498Z,1.13
2022-09-17T20:34:02.899Z,1.00
2022-09-17T20:36:35.351Z,0.90
2022-09-17T20:39:22.867Z,1.00
2022-09-17T20:41:51.085Z,1.20
2022-09-17T20:44:18.971Z,1.40
2022-09-17T20:46:47.137Z,1.10
2022-09-17T20:49:15.134Z,1.17
2022-09-17T20:51:42.975Z,2.10
2022-09-17T20:54:11.084Z,1.20
2022-09-17T20:56:38.920Z,0.80
2022-09-17T20:59:25.000Z,1.10
2022-09-17T21:01:53.649Z,1.43
2022-09-17T21:04:22.382Z,1.37
2022-09-17T21:06:54.018Z,1.07
2022-09-17T21:09:21.776Z,1.00
2022-09-17T21:11:49.910Z,1.20
2022-09-17T21:14:18.511Z,1.13
2022-09-17T21:16:47.007Z,1.60
2022-09-17T21:19:17.254Z,1.43
2022-09-17T21:21:45.041Z,1.50
2022-09-17T21:24:12.893Z,2.00
2022-09-17T21:26:40.691Z,1.60
2022-09-17T21:29:08.704Z,1.60
2022-09-17T21:31:37.974Z,1.53
2022-09-17T21:34:10.011Z,1.30
2022-09-17T21:36:40.156Z,1.70
2022-09-17T21:39:14.456Z,1.30
2022-09-17T21:41:43.969Z,1.10
2022-09-17T21:44:12.728Z,1.33
2022-09-17T21:46:42.663Z,1.20
2022-09-17T21:49:11.264Z,1.10
2022-09-17T21:51:41.962Z,1.20
2022-09-17T21:54:13.957Z,1.50
2022-09-17T21:56:42.023Z,1.20
2022-09-17T21:59:13.217Z,0.97
2022-09-17T22:01:46.656Z,1.37
2022-09-17T22:04:20.445Z,1.55
2022-09-17T22:06:49.922Z,1.23
2022-09-17T22:09:26.234Z,1.30
2022-09-17T22:11:54.065Z,1.20
2022-09-17T22:14:25.334Z,1.30
2022-09-17T22:16:57.234Z,1.60
2022-09-17T22:19:25.928Z,1.33
2022-09-17T22:21:55.582Z,1.37
2022-09-17T22:24:25.153Z,1.20
2022-09-17T22:26:57.894Z,1.30
2022-09-17T22:29:28.629Z,1.38
2022-09-17T22:31:57.289Z,1.97
2022-09-17T22:34:26.475Z,2.10
2022-09-17T22:36:54.272Z,2.10
2022-09-17T22:39:22.569Z,1.90
2022-09-17T22:41:51.106Z,1.00
2022-09-17T22:44:20.580Z,1.77
2022-09-17T22:46:51.411Z,1.43
2022-09-17T22:49:19.586Z,1.60
2022-09-17T22:51:47.676Z,1.50
2022-09-17T22:54:18.793Z,1.47
2022-09-17T22:56:48.254Z,1.57
2022-09-17T22:59:18.229Z,1.10
2022-09-17T23:01:46.421Z,1.02
2022-09-17T23:04:14.293Z,2.75
2022-09-17T23:06:42.262Z,1.50
2022-09-17T23:09:12.203Z,1.73
2022-09-17T23:11:40.367Z,1.43
2022-09-17T23:14:12.147Z,1.17
2022-09-17T23:16:47.446Z,1.20
2022-09-17T23:19:18.341Z,1.00
2022-09-17T23:21:46.581Z,1.20
2022-09-17T23:24:21.000Z,1.10
2022-09-17T23:26:50.004Z,1.20
2022-09-17T23:29:18.556Z,1.30
2022-09-17T23:31:46.305Z,1.20
2022-09-17T23:34:14.080Z,1.50
2022-09-17T23:36:41.825Z,1.20
2022-09-17T23:39:11.958Z,1.30
2022-09-17T23:41:43.439Z,1.50
2022-09-17T23:44:15.712Z,1.40
2022-09-17T23:46:45.174Z,1.47
2022-09-17T23:49:14.384Z,1.10
2022-09-17T23:51:42.596Z,1.50
2022-09-17T23:54:10.854Z,1.37
2022-09-17T23:56:38.630Z,1.80
2022-09-17T23:59:08.518Z,1.47
